createdAt,value
2018-02-27T00:00:40.312Z,98.41
2018-02-27T00:01:40.310Z,99.35
2018-02-27T00:02:40.176Z,98.22
2018-02-27T00:03:40.104Z,98.41
2018-02-27T00:04:40.035Z,98.22
2018-02-27T00:05:39.964Z,98.60
2018-02-27T00:06:39.893Z,99.63
2018-02-27T00:07:39.824Z,98.50
2018-02-27T00:08:39.755Z,99.63
2018-02-27T00:09:39.685Z,99.99
2018-02-27T00:10:39.613Z,99.82
2018-02-27T00:11:39.545Z,99.82
2018-02-27T00:12:39.478Z,98.97
2018-02-27T00:13:39.408Z,99.16
2018-02-27T00:14:39.336Z,99.99
2018-02-27T00:15:39.265Z,99.99
2018-02-27T00:16:39.198Z,99.99
2018-02-27T00:17:39.127Z,99.99
2018-02-27T00:18:39.057Z,99.99
2018-02-27T00:19:38.988Z,99.99
2018-02-27T00:20:38.916Z,99.63
2018-02-27T00:21:38.846Z,99.63
2018-02-27T00:22:38.779Z,99.99
2018-02-27T00:23:38.708Z,99.99
2018-02-27T00:24:38.638Z,98.69
2018-02-27T00:25:38.573Z,99.54
2018-02-27T00:26:38.497Z,99.99
2018-02-27T00:27:38.425Z,99.99
2018-02-27T00:28:38.357Z,99.99
2018-02-27T00:29:38.286Z,99.26
2018-02-27T00:30:38.217Z,97.75
2018-02-27T00:31:38.147Z,98.79
2018-02-27T00:32:38.080Z,98.03
2018-02-27T00:33:38.007Z,98.60
2018-02-27T00:34:37.938Z,98.22
2018-02-27T00:35:37.872Z,95.77
2018-02-27T00:36:37.797Z,97.66
2018-02-27T00:37:37.730Z,96.62
2018-02-27T00:38:37.659Z,96.15
2018-02-27T00:39:37.588Z,95.87
2018-02-27T00:40:37.518Z,94.55
2018-02-27T00:41:37.447Z,96.06
2018-02-27T00:42:37.378Z,94.45
2018-02-27T00:43:37.309Z,94.64
2018-02-27T00:44:37.237Z,97.66
2018-02-27T00:45:37.168Z,95.87
2018-02-27T00:46:37.101Z,94.64
2018-02-27T00:47:37.034Z,95.68
2018-02-27T00:48:36.960Z,95.49
2018-02-27T00:49:36.892Z,93.13
2018-02-27T00:50:36.821Z,92.95
2018-02-27T00:51:36.748Z,93.04
2018-02-27T00:52:36.680Z,93.70
2018-02-27T00:53:36.614Z,93.04
2018-02-27T00:54:36.539Z,95.21
2018-02-27T00:55:36.470Z,93.13
2018-02-27T00:56:36.402Z,94.45
2018-02-27T00:57:36.330Z,95.40
2018-02-27T00:58:36.265Z,92.38
2018-02-27T00:59:36.197Z,93.04
2018-02-27T01:00:36.125Z,92.57
2018-02-27T01:01:36.050Z,92.00
2018-02-27T01:02:35.981Z,90.78
2018-02-27T01:03:35.913Z,92.47
2018-02-27T01:04:35.842Z,91.72
2018-02-27T01:05:35.775Z,90.22
2018-02-27T01:06:35.703Z,92.29
2018-02-27T01:07:35.633Z,92.76
2018-02-27T01:08:35.564Z,91.35
2018-02-27T01:09:35.494Z,91.35
2018-02-27T01:10:35.422Z,89.75
2018-02-27T01:11:35.357Z,92.38
2018-02-27T01:12:35.285Z,91.53
2018-02-27T01:13:35.217Z,92.57
2018-02-27T01:14:35.145Z,90.03
2018-02-27T01:15:35.075Z,90.31
2018-02-27T01:16:35.007Z,90.97
2018-02-27T01:17:34.937Z,90.59
2018-02-27T01:18:34.867Z,90.69
2018-02-27T01:19:34.796Z,91.82
2018-02-27T01:20:34.732Z,90.41
2018-02-27T01:21:34.659Z,88.52
2018-02-27T01:22:34.587Z,89.75
2018-02-27T01:23:34.520Z,89.37
2018-02-27T01:24:34.448Z,89.75
2018-02-27T01:25:34.378Z,91.06
2018-02-27T01:26:34.308Z,90.50
2018-02-27T01:27:34.239Z,92.19
2018-02-27T01:28:34.170Z,90.31
2018-02-27T01:29:34.100Z,90.31
2018-02-27T01:30:34.030Z,89.84
2018-02-27T01:31:33.960Z,91.06
2018-02-27T01:32:33.890Z,90.22
2018-02-27T01:33:33.821Z,89.84
2018-02-27T01:34:33.752Z,91.16
2018-02-27T01:35:33.685Z,90.50
2018-02-27T01:36:33.613Z,91.44
2018-02-27T01:37:33.543Z,91.16
2018-02-27T01:38:33.472Z,90.59
2018-02-27T01:39:33.404Z,93.89
2018-02-27T01:40:33.333Z,92.00
2018-02-27T01:41:33.265Z,91.44
2018-02-27T01:42:33.195Z,92.95
2018-02-27T01:43:33.125Z,92.29
2018-02-27T01:44:33.055Z,92.47
2018-02-27T01:45:32.984Z,91.63
2018-02-27T01:46:32.917Z,93.51
2018-02-27T01:47:32.849Z,93.23
2018-02-27T01:48:32.776Z,94.08
2018-02-27T01:49:32.709Z,92.76
2018-02-27T01:50:32.635Z,92.57
2018-02-27T01:51:32.570Z,92.38
2018-02-27T01:52:32.498Z,94.93
2018-02-27T01:53:32.427Z,92.29
2018-02-27T01:54:32.357Z,92.57
2018-02-27T01:55:32.289Z,95.77
2018-02-27T01:56:32.222Z,94.74
2018-02-27T01:57:32.149Z,94.93
2018-02-27T01:58:32.088Z,94.64
2018-02-27T01:59:32.010Z,94.55
2018-02-27T02:00:31.940Z,95.59
2018-02-27T02:01:31.871Z,95.59
2018-02-27T02:02:31.804Z,94.45
2018-02-27T02:03:31.730Z,95.68
2018-02-27T02:04:31.660Z,93.79
2018-02-27T02:05:31.591Z,94.27
2018-02-27T02:06:31.523Z,95.96
2018-02-27T02:07:31.452Z,95.30
2018-02-27T02:08:31.383Z,95.30
2018-02-27T02:09:31.313Z,95.87
2018-02-27T02:10:31.241Z,95.77
2018-02-27T02:11:31.174Z,95.68
2018-02-27T02:12:31.105Z,96.15
2018-02-27T02:13:31.033Z,95.40
2018-02-27T02:14:30.964Z,95.87
2018-02-27T02:15:30.895Z,95.49
2018-02-27T02:16:30.825Z,95.77
2018-02-27T02:17:30.758Z,94.93
2018-02-27T02:18:30.687Z,95.96
2018-02-27T02:19:30.616Z,96.91
2018-02-27T02:20:30.547Z,97.75
2018-02-27T02:21:30.476Z,96.44
2018-02-27T02:22:30.406Z,97.75
2018-02-27T02:23:30.337Z,97.66
2018-02-27T02:24:30.267Z,97.28
2018-02-27T02:25:30.249Z,98.69
2018-02-27T02:26:30.126Z,98.50
2018-02-27T02:27:30.057Z,98.13
2018-02-27T02:28:29.989Z,98.60
2018-02-27T02:29:29.919Z,98.60
2018-02-27T02:30:29.870Z,99.26
2018-02-27T02:31:29.779Z,99.82
2018-02-27T02:32:29.711Z,99.63
2018-02-27T02:33:29.640Z,99.99
2018-02-27T02:34:29.568Z,99.99
2018-02-27T02:35:29.502Z,99.99
2018-02-27T02:36:29.432Z,99.99
2018-02-27T02:37:29.361Z,99.99
2018-02-27T02:38:29.290Z,99.99
2018-02-27T02:39:29.222Z,99.99
2018-02-27T02:40:29.154Z,99.99
2018-02-27T02:41:29.080Z,99.99
2018-02-27T02:42:29.019Z,99.99
2018-02-27T02:43:28.943Z,99.99
2018-02-27T02:44:28.870Z,99.99
2018-02-27T02:45:28.801Z,99.99
2018-02-27T02:46:28.732Z,99.99
2018-02-27T02:47:28.660Z,99.99
2018-02-27T02:48:28.592Z,99.99
2018-02-27T02:49:28.523Z,99.99
2018-02-27T02:50:28.452Z,99.99
2018-02-27T02:51:28.381Z,99.99
2018-02-27T02:52:28.312Z,99.99
2018-02-27T02:53:28.243Z,99.99
2018-02-27T02:54:28.172Z,99.99
2018-02-27T02:55:28.102Z,99.99
2018-02-27T02:56:28.031Z,99.99
2018-02-27T02:57:27.962Z,99.99
2018-02-27T02:58:27.891Z,99.99
2018-02-27T02:59:27.822Z,99.99
2018-02-27T03:00:27.755Z,99.99
2018-02-27T03:01:27.685Z,99.99
2018-02-27T03:02:27.612Z,99.99
2018-02-27T03:03:27.542Z,99.99
2018-02-27T03:04:27.473Z,99.99
2018-02-27T03:05:27.407Z,99.99
2018-02-27T03:06:27.333Z,99.99
2018-02-27T03:07:27.268Z,99.99
2018-02-27T03:08:27.194Z,99.99
2018-02-27T03:09:27.131Z,99.99
2018-02-27T03:10:27.055Z,99.99
2018-02-27T03:11:26.986Z,99.99
2018-02-27T03:12:26.915Z,99.99
2018-02-27T03:13:26.846Z,99.99
2018-02-27T03:14:26.777Z,99.99
2018-02-27T03:15:26.707Z,99.99
2018-02-27T03:16:26.635Z,99.99
2018-02-27T03:17:26.569Z,99.99
2018-02-27T03:18:26.497Z,99.99
2018-02-27T03:19:26.428Z,99.99
2018-02-27T03:20:26.360Z,99.99
2018-02-27T03:21:26.294Z,99.99
2018-02-27T03:22:26.218Z,99.99
2018-02-27T03:23:26.148Z,99.99
2018-02-27T03:24:26.080Z,99.99
2018-02-27T03:25:26.009Z,99.99
2018-02-27T03:26:25.941Z,99.99
2018-02-27T03:27:25.871Z,99.99
2018-02-27T03:28:25.800Z,99.99
2018-02-27T03:29:25.730Z,99.99
2018-02-27T03:30:25.666Z,99.99
2018-02-27T03:31:25.593Z,99.99
2018-02-27T03:32:25.521Z,99.99
2018-02-27T03:33:25.453Z,99.99
2018-02-27T03:34:25.383Z,99.99
2018-02-27T03:35:25.314Z,99.99
2018-02-27T03:36:25.245Z,99.99
2018-02-27T03:37:25.174Z,99.99
2018-02-27T03:38:25.105Z,99.99
2018-02-27T03:39:25.036Z,99.99
2018-02-27T03:40:24.967Z,99.99
2018-02-27T03:41:24.896Z,99.99
2018-02-27T03:42:24.827Z,99.99
2018-02-27T03:43:24.760Z,99.99
2018-02-27T03:44:24.692Z,99.99
2018-02-27T03:45:24.622Z,99.99
2018-02-27T03:46:24.548Z,99.99
2018-02-27T03:47:24.481Z,99.99
2018-02-27T03:48:24.412Z,99.99
2018-02-27T03:49:24.343Z,99.99
2018-02-27T03:50:24.274Z,99.99
2018-02-27T03:51:24.203Z,99.99
2018-02-27T03:52:24.136Z,99.99
2018-02-27T03:53:24.063Z,99.99
2018-02-27T03:54:24.001Z,99.99
2018-02-27T03:55:23.925Z,99.99
2018-02-27T03:56:23.856Z,99.99
2018-02-27T03:57:23.785Z,99.99
2018-02-27T03:58:23.716Z,99.99
2018-02-27T03:59:23.649Z,99.99
2018-02-27T04:00:23.582Z,99.99
2018-02-27T04:01:23.509Z,99.99
2018-02-27T04:02:23.439Z,99.99
2018-02-27T04:03:23.372Z,99.99
2018-02-27T04:04:23.299Z,99.99
2018-02-27T04:05:23.231Z,99.99
2018-02-27T04:06:23.160Z,99.99
2018-02-27T04:07:23.091Z,99.99
2018-02-27T04:08:23.021Z,99.99
2018-02-27T04:09:22.953Z,99.99
2018-02-27T04:10:22.883Z,99.99
2018-02-27T04:11:22.815Z,99.99
2018-02-27T04:12:22.743Z,99.99
2018-02-27T04:13:22.674Z,99.99
2018-02-27T04:14:22.606Z,99.99
2018-02-27T04:15:22.539Z,99.99
2018-02-27T04:16:22.466Z,99.99
2018-02-27T04:17:22.400Z,99.99
2018-02-27T04:18:22.327Z,99.99
2018-02-27T04:19:22.256Z,99.99
2018-02-27T04:20:22.189Z,99.99
2018-02-27T04:21:22.120Z,99.99
2018-02-27T04:22:22.049Z,99.99
2018-02-27T04:23:21.980Z,99.99
2018-02-27T04:24:21.911Z,99.99
2018-02-27T04:25:21.840Z,99.99
2018-02-27T04:26:21.774Z,99.99
2018-02-27T04:27:21.701Z,99.99
2018-02-27T04:28:21.635Z,99.99
2018-02-27T04:29:21.563Z,99.99
2018-02-27T04:30:21.495Z,99.99
2018-02-27T04:31:21.427Z,99.99
2018-02-27T04:32:21.361Z,99.99
2018-02-27T04:33:21.290Z,99.99
2018-02-27T04:34:21.220Z,99.99
2018-02-27T04:35:21.151Z,99.99
2018-02-27T04:36:21.078Z,99.99
2018-02-27T04:37:21.008Z,99.99
2018-02-27T04:38:20.940Z,99.99
2018-02-27T04:39:20.870Z,99.99
2018-02-27T04:40:20.801Z,99.99
2018-02-27T04:41:20.732Z,99.99
2018-02-27T04:42:20.674Z,99.99
2018-02-27T04:43:20.591Z,99.99
2018-02-27T04:44:20.524Z,99.99
2018-02-27T04:45:20.452Z,99.99
2018-02-27T04:46:20.381Z,99.99
2018-02-27T04:47:20.313Z,99.99
2018-02-27T04:48:20.245Z,99.99
2018-02-27T04:49:20.173Z,99.99
2018-02-27T04:50:20.102Z,99.99
2018-02-27T04:51:20.041Z,99.99
2018-02-27T04:52:19.966Z,99.99
2018-02-27T04:53:19.898Z,99.99
2018-02-27T04:54:19.825Z,99.99
2018-02-27T04:55:19.755Z,99.99
2018-02-27T04:56:19.688Z,99.99
2018-02-27T04:57:19.620Z,99.99
2018-02-27T04:58:19.547Z,99.99
2018-02-27T04:59:19.482Z,99.99
2018-02-27T05:00:19.410Z,99.99
2018-02-27T05:01:19.341Z,99.99
2018-02-27T05:02:19.269Z,99.99
2018-02-27T05:03:19.203Z,99.99
2018-02-27T05:04:19.131Z,99.99
2018-02-27T05:05:19.062Z,99.99
2018-02-27T05:06:18.991Z,99.99
2018-02-27T05:07:18.919Z,99.99
2018-02-27T05:08:18.854Z,99.99
2018-02-27T05:09:18.782Z,99.99
2018-02-27T05:10:18.712Z,99.99
2018-02-27T05:11:18.644Z,99.99
2018-02-27T05:12:18.576Z,99.99
2018-02-27T05:13:18.506Z,99.99
2018-02-27T05:14:18.435Z,99.99
2018-02-27T05:15:18.362Z,99.99
2018-02-27T05:16:18.356Z,99.99
2018-02-27T05:17:18.227Z,99.99
2018-02-27T05:18:18.155Z,99.99
2018-02-27T05:19:18.086Z,99.99
2018-02-27T05:20:18.019Z,99.99
2018-02-27T05:21:17.949Z,99.99
2018-02-27T05:22:17.877Z,99.99
2018-02-27T05:23:17.805Z,99.99
2018-02-27T05:24:17.869Z,99.99
2018-02-27T05:25:17.669Z,99.99
2018-02-27T05:26:17.604Z,99.99
2018-02-27T05:27:17.533Z,99.99
2018-02-27T05:28:17.461Z,99.99
2018-02-27T05:29:17.391Z,99.99
2018-02-27T05:30:17.322Z,99.99
2018-02-27T05:31:17.253Z,99.99
2018-02-27T05:32:17.182Z,99.99
2018-02-27T05:33:17.111Z,99.99
2018-02-27T05:34:17.042Z,99.99
2018-02-27T05:35:16.971Z,99.99
2018-02-27T05:36:16.904Z,99.99
2018-02-27T05:37:16.833Z,99.99
2018-02-27T05:38:16.765Z,99.99
2018-02-27T05:39:16.693Z,99.99
2018-02-27T05:40:16.625Z,99.99
2018-02-27T05:41:16.556Z,99.99
2018-02-27T05:42:16.498Z,99.99
2018-02-27T05:43:16.414Z,99.99
2018-02-27T05:44:16.347Z,99.99
2018-02-27T05:45:16.277Z,99.99
2018-02-27T05:46:16.206Z,99.99
2018-02-27T05:47:16.137Z,99.99
2018-02-27T05:48:16.075Z,99.99
2018-02-27T05:49:16.040Z,99.99
2018-02-27T05:50:15.932Z,99.99
2018-02-27T05:51:15.875Z,99.99
2018-02-27T05:52:15.789Z,99.99
2018-02-27T05:53:15.722Z,99.99
2018-02-27T05:54:15.651Z,99.99
2018-02-27T05:55:15.591Z,99.99
2018-02-27T05:56:15.514Z,99.99
2018-02-27T05:57:15.445Z,99.99
2018-02-27T05:58:15.373Z,99.99
2018-02-27T05:59:15.305Z,99.99
2018-02-27T06:00:15.233Z,99.99
2018-02-27T06:01:15.216Z,99.99
2018-02-27T06:02:15.096Z,99.99
2018-02-27T06:03:15.026Z,99.99
2018-02-27T06:04:14.958Z,99.99
2018-02-27T06:05:14.886Z,99.99
2018-02-27T06:06:14.818Z,99.99
2018-02-27T06:07:14.747Z,99.99
2018-02-27T06:08:14.677Z,99.99
2018-02-27T06:09:14.610Z,99.99
2018-02-27T06:10:14.540Z,99.99
2018-02-27T06:11:14.510Z,99.99
2018-02-27T06:12:14.404Z,99.99
2018-02-27T06:13:14.331Z,99.99
2018-02-27T06:14:14.254Z,99.99
2018-02-27T06:15:14.191Z,99.99
2018-02-27T06:16:14.124Z,99.99
2018-02-27T06:17:14.051Z,99.99
2018-02-27T06:18:13.981Z,99.99
2018-02-27T06:19:13.913Z,99.99
2018-02-27T06:20:13.842Z,99.99
2018-02-27T06:21:13.783Z,99.99
2018-02-27T06:22:13.703Z,99.99
2018-02-27T06:23:13.634Z,99.99
2018-02-27T06:24:13.565Z,99.99
2018-02-27T06:25:13.495Z,99.99
2018-02-27T06:26:13.431Z,99.99
2018-02-27T06:27:13.354Z,99.99
2018-02-27T06:28:13.287Z,99.99
2018-02-27T06:29:13.217Z,99.99
2018-02-27T06:30:13.146Z,99.99
2018-02-27T06:31:13.076Z,99.99
2018-02-27T06:32:13.009Z,99.99
2018-02-27T06:33:12.939Z,99.99
2018-02-27T06:34:12.867Z,99.99
2018-02-27T06:35:12.798Z,99.99
2018-02-27T06:36:12.730Z,99.99
2018-02-27T06:37:12.659Z,99.99
2018-02-27T06:38:12.592Z,99.99
2018-02-27T06:39:12.520Z,99.99
2018-02-27T06:40:12.448Z,99.99
2018-02-27T06:41:12.381Z,99.99
2018-02-27T06:42:12.311Z,99.99
2018-02-27T06:43:12.240Z,99.99
2018-02-27T06:44:12.171Z,99.99
2018-02-27T06:45:12.106Z,99.99
2018-02-27T06:46:12.031Z,99.99
2018-02-27T06:47:12.027Z,99.99
2018-02-27T06:48:11.894Z,99.99
2018-02-27T06:49:11.825Z,99.99
2018-02-27T06:50:11.754Z,99.99
2018-02-27T06:51:11.696Z,99.99
2018-02-27T06:52:11.616Z,99.99
2018-02-27T06:53:11.546Z,99.99
2018-02-27T06:54:11.476Z,99.99
2018-02-27T06:55:11.410Z,99.99
2018-02-27T06:56:11.340Z,99.99
2018-02-27T06:57:11.275Z,99.99
2018-02-27T06:58:11.199Z,99.99
2018-02-27T06:59:11.129Z,99.99
2018-02-27T07:00:11.065Z,99.99
2018-02-27T07:01:11.001Z,99.99
2018-02-27T07:02:10.923Z,99.99
2018-02-27T07:03:10.853Z,99.99
2018-02-27T07:04:10.782Z,99.99
2018-02-27T07:05:10.715Z,99.99
2018-02-27T07:06:10.647Z,99.99
2018-02-27T07:07:10.577Z,99.99
2018-02-27T07:08:10.507Z,99.99
2018-02-27T07:09:10.436Z,99.99
2018-02-27T07:10:10.366Z,99.99
2018-02-27T07:11:10.299Z,99.99
2018-02-27T07:12:10.228Z,99.99
2018-02-27T07:13:10.160Z,99.99
2018-02-27T07:14:10.094Z,99.99
2018-02-27T07:15:10.024Z,99.99
2018-02-27T07:16:09.951Z,99.99
2018-02-27T07:17:09.885Z,99.99
2018-02-27T07:18:09.816Z,99.99
2018-02-27T07:19:09.745Z,99.99
2018-02-27T07:20:09.677Z,99.99
2018-02-27T07:21:09.607Z,99.99
2018-02-27T07:22:09.537Z,99.99
2018-02-27T07:23:09.467Z,99.99
2018-02-27T07:24:09.397Z,99.99
2018-02-27T07:25:09.330Z,99.99
2018-02-27T07:26:09.262Z,99.99
2018-02-27T07:27:09.195Z,99.99
2018-02-27T07:28:09.121Z,99.99
2018-02-27T07:29:09.058Z,99.99
2018-02-27T07:30:09.019Z,99.99
2018-02-27T07:31:08.914Z,99.99
2018-02-27T07:32:08.872Z,99.99
2018-02-27T07:33:08.781Z,99.99
2018-02-27T07:34:08.708Z,99.99
2018-02-27T07:35:08.639Z,99.99
2018-02-27T07:36:08.568Z,99.99
2018-02-27T07:37:08.499Z,99.99
2018-02-27T07:38:08.429Z,99.99
2018-02-27T07:39:08.363Z,99.99
2018-02-27T07:40:08.292Z,99.99
2018-02-27T07:41:08.224Z,99.99
2018-02-27T07:42:08.155Z,99.99
2018-02-27T07:43:08.085Z,99.99
2018-02-27T07:44:08.018Z,99.99
2018-02-27T07:45:07.951Z,99.99
2018-02-27T07:46:07.878Z,99.99
2018-02-27T07:47:07.817Z,99.99
2018-02-27T07:48:07.741Z,99.99
2018-02-27T07:49:07.674Z,99.99
2018-02-27T07:50:07.603Z,99.99
2018-02-27T07:51:07.534Z,99.99
2018-02-27T07:52:07.468Z,99.99
2018-02-27T07:53:07.397Z,99.99
2018-02-27T07:54:07.330Z,99.99
2018-02-27T07:55:07.259Z,99.99
2018-02-27T07:56:07.190Z,99.99
2018-02-27T07:57:07.124Z,99.99
2018-02-27T07:58:07.052Z,99.99
2018-02-27T07:59:06.985Z,99.99
2018-02-27T08:00:06.915Z,99.99
2018-02-27T08:01:06.844Z,99.99
2018-02-27T08:02:06.776Z,99.99
2018-02-27T08:03:06.713Z,99.99
2018-02-27T08:04:06.692Z,99.99
2018-02-27T08:05:06.572Z,99.99
2018-02-27T08:06:06.502Z,99.99
2018-02-27T08:07:06.433Z,99.99
2018-02-27T08:08:06.364Z,99.99
2018-02-27T08:09:06.294Z,99.99
2018-02-27T08:10:06.253Z,99.99
2018-02-27T08:11:06.160Z,99.99
2018-02-27T08:12:06.088Z,99.99
2018-02-27T08:13:06.022Z,99.99
2018-02-27T08:14:05.949Z,99.99
2018-02-27T08:15:05.880Z,99.99
2018-02-27T08:16:05.811Z,99.63
2018-02-27T08:17:05.744Z,99.99
2018-02-27T08:18:05.672Z,99.99
2018-02-27T08:19:05.608Z,99.99
2018-02-27T08:20:05.540Z,99.99
2018-02-27T08:21:05.468Z,99.99
2018-02-27T08:22:05.400Z,99.78
2018-02-27T08:23:05.329Z,99.99
2018-02-27T08:24:05.263Z,99.12
2018-02-27T08:25:05.197Z,99.99
2018-02-27T08:26:05.124Z,96.95
2018-02-27T08:27:05.056Z,97.05
2018-02-27T08:28:04.990Z,96.39
2018-02-27T08:29:04.924Z,97.71
2018-02-27T08:30:04.851Z,99.99
2018-02-27T08:31:04.782Z,98.36
2018-02-27T08:32:04.714Z,97.89
2018-02-27T08:33:04.644Z,97.99
2018-02-27T08:34:04.577Z,98.65
2018-02-27T08:35:04.510Z,99.99
2018-02-27T08:36:04.438Z,99.59
2018-02-27T08:37:04.372Z,99.99
2018-02-27T08:38:04.304Z,99.99
2018-02-27T08:39:04.236Z,99.99
2018-02-27T08:40:04.195Z,99.40
2018-02-27T08:41:04.100Z,98.93
2018-02-27T08:42:04.032Z,97.42
2018-02-27T08:43:03.964Z,97.52
2018-02-27T08:44:03.898Z,97.89
2018-02-27T08:45:03.829Z,97.24
2018-02-27T08:46:03.759Z,97.42
2018-02-27T08:47:03.691Z,93.94
2018-02-27T08:48:03.622Z,94.79
2018-02-27T08:49:03.556Z,95.45
2018-02-27T08:50:03.489Z,94.50
2018-02-27T08:51:03.420Z,96.48
2018-02-27T08:52:03.352Z,96.11
2018-02-27T08:53:03.282Z,95.54
2018-02-27T08:54:03.215Z,94.13
2018-02-27T08:55:03.147Z,92.52
2018-02-27T08:56:03.080Z,93.75
2018-02-27T08:57:03.013Z,95.92
2018-02-27T08:58:02.944Z,93.75
2018-02-27T08:59:02.877Z,91.11
2018-02-27T09:00:02.809Z,93.84
2018-02-27T09:01:02.741Z,92.80
2018-02-27T09:02:02.673Z,93.09
2018-02-27T09:03:02.604Z,93.28
2018-02-27T09:04:02.537Z,91.20
2018-02-27T09:05:02.471Z,91.96
2018-02-27T09:06:02.402Z,93.37
2018-02-27T09:07:02.334Z,92.80
2018-02-27T09:08:02.268Z,91.96
2018-02-27T09:09:02.204Z,90.26
2018-02-27T09:10:02.135Z,92.71
2018-02-27T09:11:02.063Z,93.65
2018-02-27T09:12:01.995Z,92.80
2018-02-27T09:13:01.928Z,97.14
2018-02-27T09:14:01.861Z,94.50
2018-02-27T09:15:01.798Z,96.48
2018-02-27T09:16:01.729Z,95.82
2018-02-27T09:17:01.656Z,95.64
2018-02-27T09:18:01.592Z,94.31
2018-02-27T09:19:01.538Z,94.88
2018-02-27T09:20:01.455Z,95.35
2018-02-27T09:21:01.389Z,93.65
2018-02-27T09:22:01.318Z,92.99
2018-02-27T09:23:01.253Z,93.56
2018-02-27T09:24:01.184Z,92.90
2018-02-27T09:25:01.116Z,92.43
2018-02-27T09:26:01.049Z,91.02
2018-02-27T09:27:00.984Z,93.18
2018-02-27T09:28:00.914Z,91.96
2018-02-27T09:29:00.846Z,88.00
2018-02-27T09:30:00.778Z,88.10
2018-02-27T09:31:00.711Z,89.32
2018-02-27T09:32:00.645Z,91.96
2018-02-27T09:33:00.578Z,90.64
2018-02-27T09:34:00.510Z,89.70
2018-02-27T09:35:00.515Z,90.64
2018-02-27T09:36:00.377Z,88.19
2018-02-27T09:37:00.309Z,87.72
2018-02-27T09:38:00.247Z,91.39
2018-02-27T09:39:00.172Z,91.39
2018-02-27T09:40:00.106Z,90.83
2018-02-27T09:41:00.040Z,98.74
2018-02-27T09:41:59.971Z,93.94
2018-02-27T09:42:59.904Z,94.69
2018-02-27T09:43:59.838Z,93.84
2018-02-27T09:44:59.772Z,92.52
2018-02-27T09:45:59.702Z,90.26
2018-02-27T09:46:59.636Z,89.51
2018-02-27T09:47:59.569Z,89.13
2018-02-27T09:48:59.502Z,89.51
2018-02-27T09:49:59.434Z,85.36
2018-02-27T09:50:59.368Z,88.00
2018-02-27T09:51:59.299Z,90.45
2018-02-27T09:52:59.232Z,87.62
2018-02-27T09:53:59.167Z,86.49
2018-02-27T09:54:59.099Z,85.74
2018-02-27T09:55:59.031Z,88.19
2018-02-27T09:56:58.967Z,87.72
2018-02-27T09:57:58.899Z,85.36
2018-02-27T09:58:58.831Z,85.36
2018-02-27T09:59:58.766Z,84.09
2018-02-27T10:00:58.697Z,83.80
2018-02-27T10:01:58.630Z,82.01
2018-02-27T10:02:58.564Z,81.16
2018-02-27T10:03:58.494Z,77.96
2018-02-27T10:04:58.429Z,77.45
2018-02-27T10:05:58.361Z,77.26
2018-02-27T10:06:58.295Z,75.42
2018-02-27T10:07:58.231Z,73.53
2018-02-27T10:08:58.163Z,71.92
2018-02-27T10:09:58.096Z,69.95
2018-02-27T10:10:58.029Z,69.85
2018-02-27T10:11:57.962Z,69.57
2018-02-27T10:12:57.896Z,69.48
2018-02-27T10:13:57.829Z,68.34
2018-02-27T10:14:57.763Z,69.19
2018-02-27T10:15:57.696Z,69.00
2018-02-27T10:16:57.631Z,68.91
2018-02-27T10:17:57.568Z,67.59
2018-02-27T10:18:57.513Z,66.83
2018-02-27T10:19:57.432Z,66.46
2018-02-27T10:20:57.366Z,66.55
2018-02-27T10:21:57.298Z,65.80
2018-02-27T10:22:57.235Z,65.52
2018-02-27T10:23:57.168Z,66.17
2018-02-27T10:24:57.102Z,65.89
2018-02-27T10:25:57.032Z,65.80
2018-02-27T10:26:56.969Z,65.89
2018-02-27T10:27:56.902Z,65.05
2018-02-27T10:28:56.837Z,65.99
2018-02-27T10:29:56.772Z,65.14
2018-02-27T10:30:56.705Z,64.76
2018-02-27T10:31:56.639Z,64.39
2018-02-27T10:32:56.573Z,64.67
2018-02-27T10:33:56.508Z,64.67
2018-02-27T10:34:56.442Z,64.39
2018-02-27T10:35:56.430Z,64.76
2018-02-27T10:36:56.310Z,64.86
2018-02-27T10:37:56.245Z,65.05
2018-02-27T10:38:56.177Z,65.99
2018-02-27T10:39:56.115Z,65.05
2018-02-27T10:40:56.051Z,64.48
2018-02-27T10:41:55.981Z,64.67
2018-02-27T10:42:55.997Z,63.91
2018-02-27T10:43:55.880Z,63.73
2018-02-27T10:44:55.802Z,63.73
2018-02-27T10:45:55.726Z,63.16
2018-02-27T10:46:55.644Z,63.82
2018-02-27T10:47:55.588Z,63.82
2018-02-27T10:48:55.524Z,63.63
2018-02-27T10:49:55.458Z,63.95
2018-02-27T10:50:55.392Z,63.95
2018-02-27T10:51:55.326Z,63.66
2018-02-27T10:52:55.262Z,63.82
2018-02-27T10:53:55.198Z,64.76
2018-02-27T10:54:55.159Z,65.61
2018-02-27T10:55:55.065Z,66.64
2018-02-27T10:56:55.005Z,67.12
2018-02-27T10:57:54.932Z,66.83
2018-02-27T10:58:54.875Z,65.55
2018-02-27T10:59:54.803Z,64.70
2018-02-27T11:00:54.739Z,64.48
2018-02-27T11:01:54.698Z,66.08
2018-02-27T11:02:54.606Z,65.73
2018-02-27T11:03:54.557Z,65.83
2018-02-27T11:04:54.483Z,64.89
2018-02-27T11:05:54.416Z,63.73
2018-02-27T11:06:54.352Z,64.48
2018-02-27T11:07:54.272Z,64.58
2018-02-27T11:08:54.246Z,64.01
2018-02-27T11:09:54.170Z,62.72
2018-02-27T11:10:54.114Z,62.06
2018-02-27T11:11:54.076Z,61.68
2018-02-27T11:12:53.955Z,61.02
2018-02-27T11:13:53.886Z,59.80
2018-02-27T11:14:53.836Z,60.55
2018-02-27T11:15:53.787Z,60.27
2018-02-27T11:16:53.727Z,59.23
2018-02-27T11:17:53.713Z,59.23
2018-02-27T11:18:53.609Z,58.95
2018-02-27T11:19:53.503Z,59.51
2018-02-27T11:20:53.472Z,59.51
2018-02-27T11:21:53.366Z,59.51
2018-02-27T11:22:53.305Z,59.23
2018-02-27T11:23:53.239Z,59.70
2018-02-27T11:24:53.191Z,60.08
2018-02-27T11:25:53.117Z,60.27
2018-02-27T11:26:53.051Z,60.83
2018-02-27T11:27:52.976Z,60.93
2018-02-27T11:28:52.936Z,60.83
2018-02-27T11:29:52.870Z,61.96
2018-02-27T11:30:52.836Z,61.58
2018-02-27T11:31:52.726Z,61.87
2018-02-27T11:32:52.675Z,62.81
2018-02-27T11:33:52.603Z,62.40
2018-02-27T11:34:52.536Z,63.54
2018-02-27T11:35:52.466Z,63.54
2018-02-27T11:36:52.545Z,63.35
2018-02-27T11:37:52.346Z,63.91
2018-02-27T11:38:52.275Z,63.73
2018-02-27T11:39:52.200Z,64.48
2018-02-27T11:40:52.132Z,64.86
2018-02-27T11:41:52.062Z,65.70
2018-02-27T11:42:52.053Z,66.46
2018-02-27T11:43:51.944Z,66.27
2018-02-27T11:44:51.869Z,66.46
2018-02-27T11:45:51.964Z,65.89
2018-02-27T11:46:51.739Z,65.89
2018-02-27T11:47:51.670Z,65.42
2018-02-27T11:48:51.604Z,65.70
2018-02-27T11:49:51.528Z,65.61
2018-02-27T11:50:51.474Z,65.80
2018-02-27T11:51:51.410Z,65.70
2018-02-27T11:52:51.342Z,65.33
2018-02-27T11:53:51.277Z,64.95
2018-02-27T11:54:51.211Z,64.95
2018-02-27T11:55:51.146Z,64.39
2018-02-27T11:56:51.083Z,64.76
2018-02-27T11:57:51.019Z,64.86
2018-02-27T11:58:50.974Z,64.58
2018-02-27T11:59:50.880Z,64.58
2018-02-27T12:00:50.816Z,64.39
2018-02-27T12:01:50.749Z,64.39
2018-02-27T12:02:50.682Z,63.35
2018-02-27T12:03:50.637Z,63.54
2018-02-27T12:04:50.748Z,63.35
2018-02-27T12:05:50.589Z,62.78
2018-02-27T12:06:50.420Z,62.78
2018-02-27T12:07:50.368Z,63.16
2018-02-27T12:08:50.311Z,62.88
2018-02-27T12:09:50.240Z,62.72
2018-02-27T12:10:50.172Z,62.25
2018-02-27T12:11:50.096Z,61.96
2018-02-27T12:12:50.032Z,61.18
2018-02-27T12:13:49.983Z,61.27
2018-02-27T12:14:49.887Z,61.93
2018-02-27T12:15:49.842Z,61.55
2018-02-27T12:16:49.764Z,62.12
2018-02-27T12:17:49.698Z,61.93
2018-02-27T12:18:49.660Z,62.59
2018-02-27T12:19:49.569Z,62.31
2018-02-27T12:20:49.507Z,61.77
2018-02-27T12:21:49.455Z,61.49
2018-02-27T12:22:49.372Z,61.55
2018-02-27T12:23:49.321Z,62.12
2018-02-27T12:24:49.236Z,62.21
2018-02-27T12:25:49.193Z,62.40
2018-02-27T12:26:49.141Z,62.78
2018-02-27T12:27:49.047Z,63.25
2018-02-27T12:28:48.976Z,63.73
2018-02-27T12:29:48.908Z,64.14
2018-02-27T12:30:48.841Z,63.44
2018-02-27T12:31:48.826Z,63.44
2018-02-27T12:32:48.720Z,64.10
2018-02-27T12:33:48.660Z,63.91
2018-02-27T12:34:48.593Z,63.82
2018-02-27T12:35:48.536Z,63.91
2018-02-27T12:36:48.499Z,64.10
2018-02-27T12:37:48.466Z,64.70
2018-02-27T12:38:48.323Z,63.66
2018-02-27T12:39:48.306Z,62.81
2018-02-27T12:40:48.250Z,62.34
2018-02-27T12:41:48.135Z,61.49
2018-02-27T12:42:48.090Z,61.68
2018-02-27T12:43:48.044Z,60.55
2018-02-27T12:44:47.944Z,60.93
2018-02-27T12:45:47.856Z,60.83
2018-02-27T12:46:47.789Z,60.99
2018-02-27T12:47:47.733Z,60.99
2018-02-27T12:48:47.678Z,60.42
2018-02-27T12:49:47.592Z,60.89
2018-02-27T12:50:47.541Z,61.18
2018-02-27T12:51:47.480Z,64.10